createdAt,value
2018-09-21T00:01:27.387Z,100651.94
2018-09-21T00:04:01.710Z,100647.22
2018-09-21T00:06:30.659Z,100637.11
2018-09-21T00:08:59.402Z,100638.32
2018-09-21T00:11:28.944Z,100631.05
2018-09-21T00:13:58.996Z,100625.38
2018-09-21T00:16:27.804Z,100612.08
2018-09-21T00:18:56.761Z,100606.41
2018-09-21T00:21:25.650Z,100604.21
2018-09-21T00:23:54.649Z,100598.39
2018-09-21T00:26:23.867Z,100605.90
2018-09-21T00:28:53.826Z,100610.75
2018-09-21T00:31:22.744Z,100605.39
2018-09-21T00:33:51.608Z,100580.66
2018-09-21T00:36:20.470Z,100582.48
2018-09-21T00:38:49.650Z,100574.67
2018-09-21T00:41:19.344Z,100570.02
2018-09-21T00:43:49.073Z,100573.84
2018-09-21T00:46:19.083Z,100559.55
2018-09-21T00:48:47.874Z,100564.28
2018-09-21T00:51:19.721Z,100547.06
2018-09-21T00:53:48.752Z,100549.01
2018-09-21T00:56:17.587Z,100542.92
2018-09-21T00:58:46.449Z,100542.88
2018-09-21T01:01:15.505Z,100528.97
2018-09-21T01:03:44.564Z,100539.66
2018-09-21T01:06:13.466Z,100534.85
2018-09-21T01:08:43.805Z,100525.25
2018-09-21T01:11:13.218Z,100520.59
2018-09-21T01:13:42.324Z,100514.09
2018-09-21T01:16:18.637Z,100507.09
2018-09-21T01:18:48.913Z,100502.86
2018-09-21T01:21:18.019Z,100501.63
2018-09-21T01:23:47.084Z,100494.13
2018-09-21T01:26:16.086Z,100484.00
2018-09-21T01:28:45.798Z,100489.92
2018-09-21T01:31:14.841Z,100473.02
2018-09-21T01:33:43.944Z,100461.61
2018-09-21T01:36:14.573Z,100466.00
2018-09-21T01:38:44.327Z,100463.35
2018-09-21T01:41:13.680Z,100444.39
2018-09-21T01:43:42.646Z,100439.38
2018-09-21T01:46:11.416Z,100428.66
2018-09-21T01:48:42.486Z,100429.23
2018-09-21T01:51:12.890Z,100410.95
2018-09-21T01:53:43.606Z,100383.59
2018-09-21T01:56:13.219Z,100383.83
2018-09-21T01:58:42.971Z,100400.70
2018-09-21T02:01:13.133Z,100383.86
2018-09-21T02:03:42.763Z,100378.61
2018-09-21T02:06:13.569Z,100375.77
2018-09-21T02:08:43.190Z,100372.96
2018-09-21T02:11:12.144Z,100362.22
2018-09-21T02:13:41.557Z,100350.69
2018-09-21T02:16:10.423Z,100348.15
2018-09-21T02:18:40.351Z,100347.45
2018-09-21T02:21:09.167Z,100335.53
2018-09-21T02:23:38.479Z,100338.98
2018-09-21T02:26:07.419Z,100339.88
2018-09-21T02:28:37.004Z,100355.39
2018-09-21T02:31:06.230Z,100362.42
2018-09-21T02:33:35.048Z,100374.35
2018-09-21T02:36:04.280Z,100350.31
2018-09-21T02:38:33.392Z,100311.19
2018-09-21T02:41:04.224Z,100313.09
2018-09-21T02:43:33.182Z,100303.43
2018-09-21T02:46:02.148Z,100300.44
2018-09-21T02:48:31.363Z,100281.48
2018-09-21T02:51:00.227Z,100280.66
2018-09-21T02:53:29.040Z,100281.41
2018-09-21T02:55:57.903Z,100275.64
2018-09-21T02:58:26.811Z,100268.42
2018-09-21T03:00:55.755Z,100264.19
2018-09-21T03:03:24.312Z,100262.22
2018-09-21T03:05:55.514Z,100274.84
2018-09-21T03:08:24.474Z,100274.77
2018-09-21T03:10:53.422Z,100266.36
2018-09-21T03:13:22.851Z,100276.05
2018-09-21T03:15:52.416Z,100286.99
2018-09-21T03:18:21.300Z,100270.83
2018-09-21T03:20:51.018Z,100266.83
2018-09-21T03:23:19.891Z,100262.82
2018-09-21T03:25:48.625Z,100250.23
2018-09-21T03:28:17.631Z,100251.56
2018-09-21T03:30:46.435Z,100243.52
2018-09-21T03:33:16.063Z,100220.94
2018-09-21T03:35:45.261Z,100226.72
2018-09-21T03:38:14.059Z,100195.09
2018-09-21T03:40:43.570Z,100164.38
2018-09-21T03:43:13.177Z,100178.87
2018-09-21T03:45:42.095Z,100165.87
2018-09-21T03:48:11.617Z,100159.58
2018-09-21T03:50:40.692Z,100160.30
2018-09-21T03:53:10.526Z,100170.23
2018-09-21T03:55:40.056Z,100182.79
2018-09-21T03:58:08.867Z,100173.84
2018-09-21T04:00:38.472Z,100178.52
2018-09-21T04:03:07.771Z,100179.91
2018-09-21T04:05:37.995Z,100189.09
2018-09-21T04:08:08.163Z,100199.27
2018-09-21T04:10:40.253Z,100203.47
2018-09-21T04:13:10.607Z,100210.78
2018-09-21T04:15:39.517Z,100190.38
2018-09-21T04:18:08.693Z,100191.39
2018-09-21T04:20:38.008Z,100203.41
2018-09-21T04:23:07.077Z,100199.14
2018-09-21T04:25:37.998Z,100202.81
2018-09-21T04:28:06.948Z,100198.48
2018-09-21T04:30:38.564Z,100201.83
2018-09-21T04:33:08.756Z,100184.69
2018-09-21T04:35:38.155Z,100188.01
2018-09-21T04:38:07.854Z,100168.75
2018-09-21T04:40:36.752Z,100155.41
2018-09-21T04:43:06.573Z,100156.88
2018-09-21T04:45:35.412Z,100155.18
2018-09-21T04:48:04.238Z,100150.50
2018-09-21T04:50:32.873Z,100141.58
2018-09-21T04:53:02.726Z,100134.54
2018-09-21T04:55:31.569Z,100134.70
2018-09-21T04:58:00.357Z,100132.97
2018-09-21T05:00:29.088Z,100130.20
2018-09-21T05:02:59.358Z,100128.37
2018-09-21T05:05:28.197Z,100141.90
2018-09-21T05:07:58.016Z,100134.03
2018-09-21T05:10:26.644Z,100139.91
2018-09-21T05:12:55.579Z,100145.34
2018-09-21T05:17:57.834Z,100145.64
2018-09-21T05:20:26.456Z,100142.78
2018-09-21T05:22:56.194Z,100138.38
2018-09-21T05:25:25.516Z,100154.69
2018-09-21T05:27:56.487Z,100156.77
2018-09-21T05:30:25.372Z,100143.17
2018-09-21T05:32:54.136Z,100148.05
2018-09-21T05:35:23.046Z,100152.77
2018-09-21T05:37:51.731Z,100151.38
2018-09-21T05:40:20.374Z,100165.09
2018-09-21T05:42:49.608Z,100161.87
2018-09-21T05:45:18.293Z,100163.06
2018-09-21T05:47:47.152Z,100155.83
2018-09-21T05:50:15.812Z,100163.37
2018-09-21T05:52:44.590Z,100180.56
2018-09-21T05:55:14.459Z,100165.23
2018-09-21T05:57:43.787Z,100178.82
2018-09-21T06:00:14.974Z,100188.47
2018-09-21T06:02:46.273Z,100201.09
2018-09-21T06:05:18.493Z,100216.17
2018-09-21T06:07:47.704Z,100207.83
2018-09-21T06:12:49.918Z,100201.22
2018-09-21T06:15:22.829Z,100209.07
2018-09-21T06:17:54.751Z,100199.84
2018-09-21T06:20:23.437Z,100221.69
2018-09-21T06:22:54.158Z,100268.64
2018-09-21T06:25:24.719Z,100305.50
2018-09-21T06:27:53.470Z,100321.08
2018-09-21T06:30:23.441Z,100323.94
2018-09-21T06:32:54.313Z,100316.11
2018-09-21T06:35:23.551Z,100313.56
2018-09-21T06:37:52.469Z,100325.27
2018-09-21T06:40:22.467Z,100319.22
2018-09-21T06:42:51.642Z,100312.63
2018-09-21T06:45:21.970Z,100351.62
2018-09-21T06:47:50.722Z,100344.77
2018-09-21T06:50:21.709Z,100346.33
2018-09-21T06:52:50.566Z,100355.67
2018-09-21T06:55:19.500Z,100357.73
2018-09-21T06:57:48.972Z,100360.47
2018-09-21T07:00:19.468Z,100371.39
2018-09-21T07:02:48.098Z,100368.77
2018-09-21T07:05:17.888Z,100371.02
2018-09-21T07:07:47.443Z,100374.73
2018-09-21T07:10:16.209Z,100383.97
2018-09-21T07:12:44.857Z,100398.09
2018-09-21T07:15:13.763Z,100408.88
2018-09-21T07:17:42.575Z,100402.13
2018-09-21T07:20:12.101Z,100397.60
2018-09-21T07:22:41.727Z,100414.76
2018-09-21T07:25:10.414Z,100408.50
2018-09-21T07:27:39.139Z,100396.33
2018-09-21T07:30:08.556Z,100412.83
2018-09-21T07:32:44.026Z,100409.50
2018-09-21T07:35:13.189Z,100417.44
2018-09-21T07:37:42.245Z,100416.74
2018-09-21T07:40:11.247Z,100428.73
2018-09-21T07:42:39.970Z,100439.30
2018-09-21T07:45:08.716Z,100421.13
2018-09-21T07:47:37.643Z,100429.78
2018-09-21T07:50:06.482Z,100433.38
2018-09-21T07:52:35.350Z,100449.12
2018-09-21T07:55:04.102Z,100444.88
2018-09-21T07:57:32.891Z,100462.12
2018-09-21T08:00:01.676Z,100474.58
2018-09-21T08:02:30.416Z,100468.22
2018-09-21T08:05:00.169Z,100484.82
2018-09-21T08:07:29.789Z,100490.88
2018-09-21T08:09:58.500Z,100499.48
2018-09-21T08:12:27.274Z,100493.67
2018-09-21T08:14:56.126Z,100487.35
2018-09-21T08:17:24.888Z,100495.02
2018-09-21T08:19:54.238Z,100510.96
2018-09-21T08:22:24.955Z,100512.12
2018-09-21T08:24:53.690Z,100515.96
2018-09-21T08:27:23.452Z,100522.59
2018-09-21T08:29:52.276Z,100533.55
2018-09-21T08:34:54.024Z,100556.45
2018-09-21T08:37:22.854Z,100554.87
2018-09-21T08:39:52.066Z,100552.44
2018-09-21T08:42:20.860Z,100552.97
2018-09-21T08:44:49.537Z,100571.98
2018-09-21T08:47:18.238Z,100575.21
2018-09-21T08:49:46.912Z,100573.89
2018-09-21T08:52:16.412Z,100586.22
2018-09-21T08:54:45.172Z,100591.95
2018-09-21T08:57:14.074Z,100586.42
2018-09-21T08:59:42.732Z,100597.88
2018-09-21T09:02:12.426Z,100600.16
2018-09-21T09:04:42.120Z,100626.11
2018-09-21T09:07:11.047Z,100627.37
2018-09-21T09:09:39.690Z,100638.77
2018-09-21T09:12:09.233Z,100647.44
2018-09-21T09:14:37.939Z,100642.87
2018-09-21T09:17:06.805Z,100654.42
2018-09-21T09:19:38.028Z,100646.68
2018-09-21T09:22:08.375Z,100650.64
2018-09-21T09:24:37.485Z,100652.17
2018-09-21T09:27:06.268Z,100666.27
2018-09-21T09:29:35.081Z,100676.84
2018-09-21T09:32:04.615Z,100678.28
2018-09-21T09:34:33.612Z,100684.54
2018-09-21T09:37:04.032Z,100716.87
2018-09-21T09:39:33.720Z,100703.41
2018-09-21T09:42:02.768Z,100708.94
2018-09-21T09:44:32.117Z,100729.45
2018-09-21T09:47:00.913Z,100723.48
2018-09-21T09:49:29.848Z,100724.42
2018-09-21T09:51:58.703Z,100703.17
2018-09-21T09:54:27.623Z,100721.30
2018-09-21T09:56:56.527Z,100734.30
2018-09-21T09:59:25.304Z,100729.72
2018-09-21T10:01:54.196Z,100735.37
2018-09-21T10:04:25.798Z,100745.10
2018-09-21T10:06:54.744Z,100735.73
2018-09-21T10:09:23.532Z,100756.16
2018-09-21T10:11:52.414Z,100749.42
2018-09-21T10:14:21.274Z,100747.76
2018-09-21T10:16:50.181Z,100754.09
2018-09-21T10:19:21.056Z,100757.94
2018-09-21T10:21:49.834Z,100764.07
2018-09-21T10:24:18.813Z,100759.98
2018-09-21T10:26:47.465Z,100762.14
2018-09-21T10:29:16.354Z,100775.84
2018-09-21T10:31:45.135Z,100785.73
2018-09-21T10:34:13.993Z,100787.50
2018-09-21T10:36:44.940Z,100798.38
2018-09-21T10:39:14.689Z,100807.95
2018-09-21T10:41:43.654Z,100800.60
2018-09-21T10:44:14.040Z,100806.01
2018-09-21T10:46:42.899Z,100820.09
2018-09-21T10:49:12.447Z,100813.45
2018-09-21T10:51:41.097Z,100819.23
2018-09-21T10:54:09.879Z,100821.51
2018-09-21T10:56:38.580Z,100823.32
2018-09-21T10:59:07.400Z,100820.59
2018-09-21T11:01:36.046Z,100837.66
2018-09-21T11:04:04.894Z,100842.22
2018-09-21T11:06:34.226Z,100841.83
2018-09-21T11:09:04.113Z,100857.19
2018-09-21T11:11:32.953Z,100848.17
2018-09-21T11:14:02.316Z,100853.61
2018-09-21T11:16:31.193Z,100865.20
2018-09-21T11:18:59.925Z,100859.44
2018-09-21T11:21:29.663Z,100866.16
2018-09-21T11:23:58.723Z,100859.91
2018-09-21T11:26:27.711Z,100871.32
2018-09-21T11:28:56.459Z,100863.63
2018-09-21T11:31:25.278Z,100877.30
2018-09-21T11:33:54.282Z,100878.19
2018-09-21T11:36:24.053Z,100901.63
2018-09-21T11:38:52.960Z,100886.72
2018-09-21T11:41:21.924Z,100902.68
2018-09-21T11:43:50.492Z,100899.40
2018-09-21T11:46:19.513Z,100903.20
2018-09-21T11:48:48.443Z,100914.39
2018-09-21T11:51:18.745Z,100921.16
2018-09-21T11:53:47.551Z,100920.33
2018-09-21T11:56:16.890Z,100923.88
2018-09-21T11:58:45.641Z,100915.58
2018-09-21T12:01:17.423Z,100925.20
2018-09-21T12:03:46.011Z,100925.78
2018-09-21T12:06:14.874Z,100938.41
2018-09-21T12:08:43.606Z,100936.62
2018-09-21T12:11:12.359Z,100941.94
2018-09-21T12:13:41.653Z,100950.31
2018-09-21T12:16:11.452Z,100958.23
2018-09-21T12:18:40.104Z,100956.80
2018-09-21T12:21:08.879Z,100962.72
2018-09-21T12:23:38.478Z,100968.02
2018-09-21T12:26:08.022Z,100966.27
2018-09-21T12:28:36.885Z,100961.02
2018-09-21T12:31:05.972Z,100972.34
2018-09-21T12:33:36.197Z,100982.85
2018-09-21T12:36:05.015Z,100982.84
2018-09-21T12:38:34.237Z,100991.36
2018-09-21T12:41:02.883Z,100995.61
2018-09-21T12:43:31.863Z,101008.20
2018-09-21T12:46:01.269Z,101027.18
2018-09-21T12:48:30.150Z,101018.14
2018-09-21T12:50:59.016Z,101017.03
2018-09-21T12:53:27.662Z,101027.13
2018-09-21T12:55:57.444Z,101008.77
2018-09-21T12:58:26.720Z,101029.11
2018-09-21T13:00:55.544Z,101025.23
2018-09-21T13:03:24.296Z,101026.31
2018-09-21T13:05:53.767Z,101023.77
2018-09-21T13:08:24.665Z,101057.79
2018-09-21T13:10:53.459Z,101036.55
2018-09-21T13:13:22.171Z,101051.81
2018-09-21T13:15:51.554Z,101037.94
2018-09-21T13:18:20.404Z,101043.39
2018-09-21T13:20:49.224Z,101052.16
2018-09-21T13:23:17.964Z,101061.44
2018-09-21T13:25:47.708Z,101053.59
2018-09-21T13:28:16.322Z,101064.97
2018-09-21T13:30:44.870Z,101071.61
2018-09-21T13:33:13.861Z,101066.89
2018-09-21T13:35:43.497Z,101062.55
2018-09-21T13:38:12.283Z,101073.27
2018-09-21T13:40:41.093Z,101066.14
2018-09-21T13:43:10.198Z,101087.01
2018-09-21T13:45:38.986Z,101077.01
2018-09-21T13:48:07.874Z,101078.69
2018-09-21T13:50:36.942Z,101079.30
2018-09-21T13:53:05.818Z,101082.13
2018-09-21T13:55:34.648Z,101093.83
2018-09-21T13:58:03.605Z,101093.25
2018-09-21T14:00:32.209Z,101104.32
2018-09-21T14:03:01.133Z,101101.05
2018-09-21T14:05:29.887Z,101109.89
2018-09-21T14:08:00.026Z,101101.34
2018-09-21T14:10:28.811Z,101113.52
2018-09-21T14:12:57.492Z,101114.72
2018-09-21T14:15:26.471Z,101107.72
2018-09-21T14:17:55.287Z,101106.98
2018-09-21T14:20:24.110Z,101115.31
2018-09-21T14:22:52.813Z,101116.16
2018-09-21T14:25:21.454Z,101114.77
2018-09-21T14:27:50.178Z,101130.48
2018-09-21T14:30:18.815Z,101133.84
2018-09-21T14:32:47.565Z,101138.22
2018-09-21T14:35:16.171Z,101153.62
2018-09-21T14:37:45.429Z,101135.20
2018-09-21T14:40:14.167Z,101153.23
2018-09-21T14:42:42.787Z,101142.80
2018-09-21T14:45:11.759Z,101149.87
2018-09-21T14:47:40.487Z,101150.21
2018-09-21T14:50:09.838Z,101145.42
2018-09-21T14:52:40.401Z,101141.78
2018-09-21T14:55:20.086Z,101139.07
2018-09-21T14:57:48.917Z,101143.64
2018-09-21T15:00:17.611Z,101145.75
2018-09-21T15:02:49.072Z,101145.63
2018-09-21T15:05:18.059Z,101137.81
2018-09-21T15:07:46.624Z,101141.74
2018-09-21T15:10:15.232Z,101146.91
2018-09-21T15:12:44.245Z,101154.09
2018-09-21T15:15:13.072Z,101153.19
2018-09-21T15:17:42.120Z,101147.41
2018-09-21T15:20:10.744Z,101150.00
2018-09-21T15:22:39.624Z,101154.42
2018-09-21T15:25:08.475Z,101135.25
2018-09-21T15:27:40.129Z,101133.44
2018-09-21T15:30:08.949Z,101128.77
2018-09-21T15:32:38.468Z,101136.27
2018-09-21T15:35:07.315Z,101123.72
2018-09-21T15:37:37.290Z,101137.23
2018-09-21T15:40:06.220Z,101133.91
2018-09-21T15:42:36.797Z,101128.27
2018-09-21T15:45:06.268Z,101120.34
2018-09-21T15:47:35.657Z,101130.08
2018-09-21T15:50:05.132Z,101144.95
2018-09-21T15:52:33.913Z,101125.26
2018-09-21T15:55:02.851Z,101125.02
2018-09-21T15:57:32.421Z,101115.50
2018-09-21T16:00:01.216Z,101113.45
2018-09-21T16:02:30.400Z,101106.66
2018-09-21T16:04:59.385Z,101093.08
2018-09-21T16:07:29.018Z,101096.31
2018-09-21T16:09:58.172Z,101105.63
2018-09-21T16:12:27.173Z,101085.09
2018-09-21T16:14:57.924Z,101071.27
2018-09-21T16:17:27.680Z,101087.06
2018-09-21T16:19:56.530Z,101078.56
2018-09-21T16:22:26.087Z,101080.23
2018-09-21T16:24:54.990Z,101090.92
2018-09-21T16:27:23.856Z,101111.18
2018-09-21T16:29:53.558Z,101128.88
2018-09-21T16:32:22.455Z,101136.50
2018-09-21T16:34:51.756Z,101143.94
2018-09-21T16:37:20.681Z,101162.84
2018-09-21T16:39:49.953Z,101166.53
2018-09-21T16:42:18.737Z,101163.98
2018-09-21T16:44:47.956Z,101159.89
2018-09-21T16:47:19.289Z,101170.05
2018-09-21T16:50:00.582Z,101173.64
2018-09-21T16:52:30.095Z,101173.95
2018-09-21T16:54:58.916Z,101162.96
2018-09-21T16:57:27.972Z,101167.28
2018-09-21T16:59:57.687Z,101160.86
2018-09-21T17:02:26.548Z,101178.75
2018-09-21T17:04:57.378Z,101174.95
2018-09-21T17:07:27.055Z,101192.44
2018-09-21T17:09:56.028Z,101230.66
2018-09-21T17:12:24.919Z,101225.50
2018-09-21T17:17:55.845Z,101217.07
2018-09-21T17:20:26.089Z,101207.52
2018-09-21T17:22:55.468Z,101209.99
2018-09-21T17:25:24.930Z,101203.08
2018-09-21T17:27:55.212Z,101187.58
2018-09-21T17:30:27.810Z,101124.52
2018-09-21T17:32:56.629Z,101194.55
2018-09-21T17:35:25.717Z,101202.67
2018-09-21T17:37:55.368Z,101208.20
2018-09-21T17:40:24.407Z,101193.81
2018-09-21T17:42:55.255Z,101188.26
2018-09-21T17:45:24.215Z,101189.54
2018-09-21T17:47:53.729Z,101204.84
2018-09-21T17:50:22.738Z,101202.50
2018-09-21T17:52:53.539Z,101201.89
2018-09-21T17:55:22.655Z,101209.00
2018-09-21T17:57:52.735Z,101199.03
2018-09-21T18:00:22.604Z,101209.23
2018-09-21T18:02:54.621Z,101226.23
2018-09-21T18:05:26.759Z,101227.97
2018-09-21T18:07:56.314Z,101234.18
2018-09-21T18:10:28.494Z,101243.05
2018-09-21T18:12:58.701Z,101247.20
2018-09-21T18:15:29.324Z,101248.44
2018-09-21T18:17:59.419Z,101250.19
2018-09-21T18:20:28.841Z,101242.69
2018-09-21T18:23:00.041Z,101240.68
2018-09-21T18:25:29.306Z,101259.05
2018-09-21T18:28:01.488Z,101255.38
2018-09-21T18:30:30.676Z,101263.83
2018-09-21T18:33:02.008Z,101267.80
2018-09-21T18:35:34.583Z,101260.07
2018-09-21T18:38:05.464Z,101258.89
2018-09-21T18:40:35.437Z,101263.81
2018-09-21T18:43:06.409Z,101284.08
2018-09-21T18:45:35.872Z,101284.56
2018-09-21T18:48:05.218Z,101271.50
2018-09-21T18:50:35.356Z,101289.34
2018-09-21T18:53:04.383Z,101286.50
2018-09-21T18:55:34.085Z,101292.27
2018-09-21T19:00:38.452Z,101297.14
2018-09-21T19:03:08.534Z,101311.37
2018-09-21T19:05:38.820Z,101320.63
2018-09-21T19:08:08.990Z,101321.36
2018-09-21T19:10:38.737Z,101323.36
2018-09-21T19:13:08.062Z,101323.08
2018-09-21T19:15:39.814Z,101322.34
2018-09-21T19:18:10.368Z,101320.30
2018-09-21T19:20:42.379Z,101322.25
2018-09-21T19:23:12.444Z,101325.37
2018-09-21T19:26:08.099Z,101318.80
2018-09-21T19:28:37.988Z,101326.01
2018-09-21T19:31:08.290Z,101332.79
2018-09-21T19:33:37.401Z,101339.66
2018-09-21T19:36:06.347Z,101337.55
2018-09-21T19:38:35.269Z,101340.86
2018-09-21T19:41:04.202Z,101349.56
2018-09-21T19:43:33.967Z,101351.51
2018-09-21T19:46:03.085Z,101355.96
2018-09-21T19:48:32.034Z,101356.44
2018-09-21T19:51:03.679Z,101361.20
2018-09-21T19:53:36.082Z,101364.97
2018-09-21T19:56:06.217Z,101365.17
2018-09-21T19:58:35.602Z,101365.16
2018-09-21T20:01:04.393Z,101368.19
2018-09-21T20:03:33.794Z,101370.96
2018-09-21T20:06:02.848Z,101372.23
2018-09-21T20:08:32.582Z,101377.42
2018-09-21T20:11:01.432Z,101373.09
2018-09-21T20:13:32.663Z,101375.50
2018-09-21T20:16:04.137Z,101373.06
2018-09-21T20:18:33.945Z,101364.23
2018-09-21T20:21:02.917Z,101369.10
2018-09-21T20:23:31.883Z,101378.56
2018-09-21T20:26:02.050Z,101380.95
2018-09-21T20:28:30.841Z,101395.87
2018-09-21T20:31:05.184Z,101402.66
2018-09-21T20:33:34.851Z,101408.62
2018-09-21T20:39:08.152Z,101438.81
2018-09-21T20:41:38.724Z,101452.55
2018-09-21T20:44:07.694Z,101468.27
2018-09-21T20:46:38.790Z,101484.30
2018-09-21T20:49:17.150Z,101469.75
2018-09-21T20:51:45.919Z,101478.40
2018-09-21T20:54:15.643Z,101463.49
2018-09-21T20:56:45.097Z,101479.17
2018-09-21T20:59:15.935Z,101528.84
2018-09-21T21:01:47.289Z,101547.00
2018-09-21T21:04:18.928Z,101552.11
2018-09-21T21:06:48.401Z,101562.27
2018-09-21T21:09:17.661Z,101544.50
2018-09-21T21:11:50.036Z,101536.03
2018-09-21T21:14:20.237Z,101529.48
2018-09-21T21:16:49.067Z,101530.36
2018-09-21T21:19:17.841Z,101528.53
2018-09-21T21:21:48.459Z,101531.55
2018-09-21T21:24:19.024Z,101527.93
2018-09-21T21:26:52.873Z,101544.48
2018-09-21T21:29:23.562Z,101544.69
2018-09-21T21:31:56.210Z,101558.20
2018-09-21T21:34:32.169Z,101562.39
2018-09-21T21:37:01.441Z,101568.80
2018-09-21T21:39:33.113Z,101568.63
2018-09-21T21:42:04.058Z,101569.27
2018-09-21T21:44:38.879Z,101572.58
2018-09-21T21:47:09.717Z,101578.47
2018-09-21T21:49:39.756Z,101579.00
2018-09-21T21:52:12.546Z,101589.34
2018-09-21T21:54:43.235Z,101588.41
2018-09-21T21:57:12.506Z,101601.55
2018-09-21T22:02:20.984Z,101623.30
2018-09-21T22:04:54.068Z,101623.67
2018-09-21T22:07:26.217Z,101654.69
2018-09-21T22:09:57.257Z,101651.10
2018-09-21T22:12:34.829Z,101667.94
2018-09-21T22:15:06.737Z,101672.36
2018-09-21T22:17:38.685Z,101665.80
2018-09-21T22:20:09.707Z,101673.65
2018-09-21T22:22:40.431Z,101681.73
2018-09-21T22:25:12.295Z,101684.91
2018-09-21T22:27:46.770Z,101684.51
2018-09-21T22:30:16.845Z,101692.81
2018-09-21T22:32:47.080Z,101673.17
2018-09-21T22:35:17.780Z,101673.40
2018-09-21T22:37:52.132Z,101669.72
2018-09-21T22:40:23.854Z,101678.46
2018-09-21T22:42:57.996Z,101668.51
2018-09-21T22:45:28.018Z,101674.27
2018-09-21T22:47:58.725Z,101674.81
2018-09-21T22:50:31.172Z,101674.81
2018-09-21T22:53:01.904Z,101677.95
2018-09-21T22:55:39.741Z,101679.52
2018-09-21T23:02:58.424Z,101696.78
2018-09-21T23:05:29.073Z,101708.30
2018-09-21T23:07:59.638Z,101702.77
2018-09-21T23:10:29.950Z,101706.30
2018-09-21T23:13:02.549Z,101705.90
2018-09-21T23:15:31.830Z,101711.92
2018-09-21T23:18:02.384Z,101721.36
2018-09-21T23:20:32.420Z,101738.48
2018-09-21T23:23:05.186Z,101732.66
2018-09-21T23:25:41.065Z,101737.77
2018-09-21T23:28:11.801Z,101749.50
2018-09-21T23:30:43.019Z,101746.25
2018-09-21T23:33:14.051Z,101750.66
2018-09-21T23:35:46.146Z,101746.65
2018-09-21T23:38:19.012Z,101752.64
2018-09-21T23:40:51.125Z,101758.66
2018-09-21T23:43:21.539Z,101765.59
2018-09-21T23:45:51.380Z,101767.84
2018-09-21T23:48:24.866Z,101766.09
2018-09-21T23:53:37.343Z,101774.76
2018-09-21T23:56:08.919Z,101767.95
2018-09-21T23:58:39.767Z,101773.75
